createdAt,value
2022-10-11T00:02:38.457Z,66.29
2022-10-11T00:05:40.453Z,67.25
2022-10-11T00:08:41.953Z,66.71
2022-10-11T00:11:43.530Z,66.74
2022-10-11T00:14:44.988Z,67.07
2022-10-11T00:17:47.185Z,67.38
2022-10-11T00:20:48.579Z,67.58
2022-10-11T00:23:50.361Z,67.43
2022-10-11T00:26:51.814Z,67.43
2022-10-11T00:29:53.468Z,67.50
2022-10-11T00:32:54.924Z,67.85
2022-10-11T00:35:58.669Z,68.14
2022-10-11T00:39:00.148Z,67.67
2022-10-11T00:42:01.815Z,67.79
2022-10-11T00:45:31.147Z,67.29
2022-10-11T00:48:50.406Z,67.00
2022-10-11T00:51:58.454Z,67.01
2022-10-11T00:55:04.881Z,67.84
2022-10-11T00:58:07.330Z,68.18
2022-10-11T01:01:09.029Z,68.21
2022-10-11T01:04:10.628Z,67.83
2022-10-11T01:07:13.405Z,67.85
2022-10-11T01:10:14.849Z,67.82
2022-10-11T01:13:47.371Z,67.57
2022-10-11T01:16:56.845Z,67.75
2022-10-11T01:20:21.540Z,67.63
2022-10-11T01:23:42.541Z,66.95
2022-10-11T01:27:37.067Z,67.78
2022-10-11T01:30:38.966Z,67.99
2022-10-11T01:33:49.879Z,68.64
2022-10-11T01:37:05.651Z,68.43
2022-10-11T01:40:16.333Z,67.52
2022-10-11T01:43:20.288Z,68.06
2022-10-11T01:46:22.330Z,68.30
2022-10-11T01:49:23.676Z,68.60
2022-10-11T01:52:33.500Z,68.20
2022-10-11T01:55:49.685Z,67.95
2022-10-11T01:59:12.302Z,68.33
2022-10-11T02:02:41.148Z,68.92
2022-10-11T02:06:01.192Z,68.70
2022-10-11T02:09:10.960Z,68.24
2022-10-11T02:12:17.985Z,67.68
2022-10-11T02:15:22.644Z,67.76
2022-10-11T02:18:29.965Z,68.05
2022-10-11T02:21:34.440Z,67.77
2022-10-11T02:24:40.099Z,69.04
2022-10-11T02:27:45.396Z,68.87
2022-10-11T02:30:49.574Z,69.36
2022-10-11T02:34:09.580Z,68.97
2022-10-11T02:37:26.665Z,68.71
2022-10-11T02:40:33.406Z,68.20
2022-10-11T02:43:43.504Z,69.31
2022-10-11T02:46:46.612Z,70.16
2022-10-11T02:49:48.053Z,70.50
2022-10-11T02:52:49.820Z,70.24
2022-10-11T02:55:53.380Z,70.20
2022-10-11T02:58:54.800Z,69.40
2022-10-11T03:01:56.292Z,68.90
2022-10-11T03:04:57.753Z,69.22
2022-10-11T03:07:59.288Z,69.62
2022-10-11T03:11:00.978Z,70.13
2022-10-11T03:14:02.564Z,70.09
2022-10-11T03:17:23.752Z,70.19
2022-10-11T03:20:25.428Z,70.12
2022-10-11T03:23:26.889Z,69.94
2022-10-11T03:26:28.341Z,70.11
2022-10-11T03:29:29.818Z,70.19
2022-10-11T03:32:31.276Z,70.50
2022-10-11T03:35:32.697Z,71.42
2022-10-11T03:38:34.269Z,71.50
2022-10-11T03:41:35.725Z,71.10
2022-10-11T03:44:38.659Z,69.97
2022-10-11T03:47:40.505Z,69.18
2022-10-11T03:50:42.301Z,69.10
2022-10-11T03:53:43.814Z,68.93
2022-10-11T03:56:45.318Z,69.36
2022-10-11T03:59:48.007Z,69.21
2022-10-11T04:02:49.460Z,68.55
2022-10-11T04:05:51.001Z,68.94
2022-10-11T04:08:52.541Z,69.10
2022-10-11T04:11:53.940Z,68.29
2022-10-11T04:14:55.321Z,69.09
2022-10-11T04:17:56.739Z,70.48
2022-10-11T04:20:58.147Z,70.67
2022-10-11T04:23:59.584Z,70.50
2022-10-11T04:27:01.026Z,70.70
2022-10-11T04:30:02.608Z,71.48
2022-10-11T04:33:04.020Z,71.78
2022-10-11T04:36:06.194Z,71.26
2022-10-11T04:39:08.548Z,70.93
2022-10-11T04:42:10.195Z,70.87
2022-10-11T04:45:11.584Z,71.65
2022-10-11T04:48:13.993Z,71.50
2022-10-11T04:51:15.442Z,70.72
2022-10-11T04:54:16.874Z,70.41
2022-10-11T04:57:18.303Z,69.79
2022-10-11T05:00:19.789Z,69.04
2022-10-11T05:03:21.370Z,68.86
2022-10-11T05:06:23.044Z,69.12
2022-10-11T05:09:24.561Z,69.37
2022-10-11T05:12:26.174Z,69.16
2022-10-11T05:15:28.096Z,69.34
2022-10-11T05:18:29.956Z,69.85
2022-10-11T05:21:32.001Z,70.08
2022-10-11T05:24:33.480Z,70.65
2022-10-11T05:27:34.947Z,71.11
2022-10-11T05:30:36.418Z,70.39
2022-10-11T05:33:38.321Z,69.81
2022-10-11T05:36:39.840Z,69.43
2022-10-11T05:39:41.259Z,69.36
2022-10-11T05:42:42.902Z,69.89
2022-10-11T05:45:45.221Z,70.14
2022-10-11T05:48:46.685Z,70.86
2022-10-11T05:51:48.086Z,71.37
2022-10-11T05:54:49.544Z,71.80
2022-10-11T05:57:55.872Z,71.40
2022-10-11T06:00:57.436Z,70.58
2022-10-11T06:03:58.970Z,70.57
2022-10-11T06:07:00.363Z,70.84
2022-10-11T06:10:01.869Z,70.61
2022-10-11T06:13:03.384Z,70.81
2022-10-11T06:16:05.432Z,69.86
2022-10-11T06:19:06.984Z,69.12
2022-10-11T06:22:11.764Z,68.73
2022-10-11T06:25:13.185Z,69.18
2022-10-11T06:28:14.714Z,68.77
2022-10-11T06:31:16.182Z,68.22
2022-10-11T06:34:17.575Z,68.30
2022-10-11T06:37:19.349Z,68.19
2022-10-11T06:40:20.737Z,68.45
2022-10-11T06:43:22.698Z,68.42
2022-10-11T06:46:26.669Z,68.19
2022-10-11T06:49:28.107Z,68.32
2022-10-11T06:52:29.615Z,68.76
2022-10-11T06:55:31.769Z,68.03
2022-10-11T06:58:33.454Z,68.79
2022-10-11T07:01:34.893Z,68.82
2022-10-11T07:04:36.477Z,69.15
2022-10-11T07:07:37.912Z,68.72
2022-10-11T07:10:39.308Z,68.54
2022-10-11T07:13:41.064Z,68.15
2022-10-11T07:16:42.504Z,68.39
2022-10-11T07:19:43.972Z,68.04
2022-10-11T07:22:45.406Z,68.71
2022-10-11T07:25:47.319Z,67.95
2022-10-11T07:28:48.927Z,67.63
2022-10-11T07:31:50.918Z,68.47
2022-10-11T07:34:52.341Z,68.21
2022-10-11T07:37:53.811Z,68.00
2022-10-11T07:40:55.282Z,67.93
2022-10-11T07:43:59.118Z,68.27
2022-10-11T07:47:00.556Z,68.72
2022-10-11T07:50:02.213Z,67.81
2022-10-11T07:53:04.135Z,67.63
2022-10-11T07:56:06.534Z,67.25
2022-10-11T07:59:08.357Z,67.55
2022-10-11T08:02:11.999Z,67.41
2022-10-11T08:05:13.707Z,67.21
2022-10-11T08:08:15.247Z,67.21
2022-10-11T08:11:28.478Z,67.61
2022-10-11T08:14:29.909Z,68.32
2022-10-11T08:17:31.301Z,69.11
2022-10-11T08:20:33.094Z,68.05
2022-10-11T08:23:34.785Z,66.83
2022-10-11T08:26:36.330Z,67.22
2022-10-11T08:29:37.748Z,67.62
2022-10-11T08:32:39.704Z,68.28
2022-10-11T08:35:41.124Z,67.99
2022-10-11T08:38:42.664Z,67.98
2022-10-11T08:41:56.411Z,67.84
2022-10-11T08:45:11.007Z,67.42
2022-10-11T08:48:18.470Z,66.97
2022-10-11T08:51:38.522Z,67.19
2022-10-11T08:54:49.376Z,66.81
2022-10-11T08:57:54.095Z,66.10
2022-10-11T09:00:57.935Z,66.33
2022-10-11T09:04:03.709Z,66.85
2022-10-11T09:07:08.873Z,66.58
2022-10-11T09:10:31.909Z,65.79
2022-10-11T09:13:45.758Z,65.10
2022-10-11T09:17:05.547Z,65.43
2022-10-11T09:20:15.793Z,64.67
2022-10-11T09:23:51.993Z,64.59
2022-10-11T09:27:12.821Z,63.96
2022-10-11T09:30:20.139Z,63.30
2022-10-11T09:33:39.946Z,62.89
2022-10-11T09:36:57.545Z,62.79
2022-10-11T09:40:27.253Z,62.46
2022-10-11T09:43:28.738Z,62.61
2022-10-11T09:46:30.756Z,61.66
2022-10-11T09:49:38.773Z,62.08
2022-10-11T09:52:51.536Z,62.07
2022-10-11T09:56:01.741Z,62.23
2022-10-11T09:59:30.971Z,62.28
2022-10-11T10:02:49.542Z,62.82
2022-10-11T10:06:13.868Z,61.85
2022-10-11T10:09:27.064Z,61.23
2022-10-11T10:12:30.403Z,61.44
2022-10-11T10:15:37.260Z,60.94
2022-10-11T10:18:51.867Z,60.80
2022-10-11T10:21:55.480Z,60.61
2022-10-11T10:25:00.093Z,58.81
2022-10-11T10:28:04.858Z,57.50
2022-10-11T10:31:22.251Z,56.46
2022-10-11T10:34:33.475Z,55.47
2022-10-11T10:37:42.672Z,56.25
2022-10-11T10:40:48.165Z,56.54
2022-10-11T10:43:57.060Z,55.58
2022-10-11T10:47:01.533Z,56.86
2022-10-11T10:50:18.835Z,56.54
2022-10-11T10:53:29.420Z,58.87
2022-10-11T10:56:38.778Z,58.99
2022-10-11T10:59:46.307Z,58.96
2022-10-11T11:03:05.505Z,58.78
2022-10-11T11:06:12.112Z,59.08
2022-10-11T11:09:22.779Z,57.53
2022-10-11T11:12:37.507Z,59.33
2022-10-11T11:15:42.875Z,58.67
2022-10-11T11:18:58.308Z,57.78
2022-10-11T11:22:15.983Z,58.13
2022-10-11T11:25:48.229Z,57.51
2022-10-11T11:29:19.745Z,57.41
2022-10-11T11:32:55.589Z,57.19
2022-10-11T11:36:03.094Z,57.74
2022-10-11T11:39:11.110Z,57.35
2022-10-11T11:42:26.482Z,58.23
2022-10-11T11:45:33.683Z,58.11
2022-10-11T11:48:35.542Z,56.91
2022-10-11T11:51:42.708Z,56.47
2022-10-11T11:55:04.176Z,57.41
2022-10-11T11:58:33.935Z,57.04
2022-10-11T12:02:01.412Z,57.32
2022-10-11T12:05:06.689Z,57.36
2022-10-11T12:08:37.843Z,57.43
2022-10-11T12:11:41.428Z,57.77
2022-10-11T12:14:42.917Z,57.29
2022-10-11T12:17:56.501Z,56.93
2022-10-11T12:21:16.673Z,56.60
2022-10-11T12:24:18.021Z,57.13
2022-10-11T12:27:39.707Z,57.66
2022-10-11T12:30:47.114Z,57.88
2022-10-11T12:34:02.641Z,57.85
2022-10-11T12:37:19.564Z,58.14
2022-10-11T12:40:54.818Z,58.25
2022-10-11T12:44:14.792Z,57.69
2022-10-11T12:47:32.847Z,57.65
2022-10-11T12:50:37.411Z,56.79
2022-10-11T12:54:27.548Z,56.84
2022-10-11T12:57:53.147Z,57.43
2022-10-11T13:00:55.577Z,57.67
2022-10-11T13:04:00.988Z,58.23
2022-10-11T13:07:07.447Z,57.71
2022-10-11T13:10:15.842Z,58.19
2022-10-11T13:13:24.686Z,57.74
2022-10-11T13:16:29.284Z,57.99
2022-10-11T13:19:32.922Z,58.13
2022-10-11T13:22:35.760Z,58.30
2022-10-11T13:25:37.735Z,58.21
2022-10-11T13:28:39.269Z,58.18
2022-10-11T13:31:41.124Z,58.22
2022-10-11T13:34:46.669Z,58.86
2022-10-11T13:37:48.802Z,59.60
2022-10-11T13:40:51.295Z,58.18
2022-10-11T13:43:53.408Z,57.97
2022-10-11T13:46:55.085Z,57.91
2022-10-11T13:50:16.977Z,58.01
2022-10-11T13:53:18.313Z,58.21
2022-10-11T13:56:19.812Z,58.44
2022-10-11T13:59:28.041Z,58.14
2022-10-11T14:02:30.068Z,58.00
2022-10-11T14:05:36.756Z,58.69
2022-10-11T14:08:46.665Z,58.74
2022-10-11T14:11:48.744Z,58.34
2022-10-11T14:14:50.110Z,58.00
2022-10-11T14:17:51.699Z,58.28
2022-10-11T14:20:53.183Z,58.54
2022-10-11T14:24:07.434Z,58.75
2022-10-11T14:27:17.248Z,57.94
2022-10-11T14:30:26.602Z,58.62
2022-10-11T14:33:28.967Z,58.72
2022-10-11T14:36:30.416Z,58.40
2022-10-11T14:39:33.113Z,58.95
2022-10-11T14:42:34.544Z,59.43
2022-10-11T14:45:36.584Z,59.33
2022-10-11T14:48:54.208Z,59.84
2022-10-11T14:51:58.472Z,59.17
2022-10-11T14:55:00.599Z,58.77
2022-10-11T14:58:02.423Z,58.89
2022-10-11T15:01:03.923Z,59.69
2022-10-11T15:04:05.402Z,58.99
2022-10-11T15:07:07.144Z,58.64
2022-10-11T15:10:27.844Z,58.79
2022-10-11T15:13:29.251Z,59.22
2022-10-11T15:16:31.130Z,60.33
2022-10-11T15:19:32.710Z,59.31
2022-10-11T15:22:34.114Z,59.17
2022-10-11T15:25:37.729Z,59.21
2022-10-11T15:28:39.257Z,59.27
2022-10-11T15:31:40.820Z,59.31
2022-10-11T15:34:42.291Z,59.75
2022-10-11T15:37:44.314Z,59.34
2022-10-11T15:40:46.936Z,58.90
2022-10-11T15:43:49.336Z,59.83
2022-10-11T15:46:51.099Z,59.87
2022-10-11T15:49:52.556Z,59.83
2022-10-11T15:52:54.491Z,59.63
2022-10-11T15:55:59.061Z,60.14
2022-10-11T15:59:00.556Z,59.85
2022-10-11T16:02:02.066Z,59.76
2022-10-11T16:05:03.897Z,59.86
2022-10-11T16:08:05.462Z,59.90
2022-10-11T16:11:08.250Z,60.36
2022-10-11T16:14:09.769Z,60.61
2022-10-11T16:17:11.334Z,60.54
2022-10-11T16:20:13.166Z,60.40
2022-10-11T16:23:15.305Z,61.00
2022-10-11T16:26:16.729Z,60.24
2022-10-11T16:29:18.435Z,60.49
2022-10-11T16:32:20.390Z,60.94
2022-10-11T16:35:22.050Z,60.97
2022-10-11T16:38:23.472Z,60.76
2022-10-11T16:41:24.951Z,60.96
2022-10-11T16:44:27.743Z,60.76
2022-10-11T16:47:29.189Z,61.08
2022-10-11T16:50:33.340Z,60.79
2022-10-11T16:53:37.313Z,61.17
2022-10-11T16:56:40.102Z,61.18
2022-10-11T16:59:42.049Z,61.38
2022-10-11T17:02:43.809Z,62.35
2022-10-11T17:05:45.260Z,62.12
2022-10-11T17:08:47.108Z,62.46
2022-10-11T17:11:48.726Z,62.49
2022-10-11T17:14:50.729Z,61.92
2022-10-11T17:17:55.627Z,61.73
2022-10-11T17:21:04.449Z,61.74
2022-10-11T17:24:06.697Z,61.94
2022-10-11T17:27:08.394Z,61.75
2022-10-11T17:30:10.828Z,61.84
2022-10-11T17:33:12.202Z,62.56
2022-10-11T17:36:19.461Z,62.46
2022-10-11T17:39:23.412Z,62.48
2022-10-11T17:42:24.988Z,63.26
2022-10-11T17:45:26.636Z,63.31
2022-10-11T17:48:29.044Z,62.97
2022-10-11T17:51:32.132Z,63.33
2022-10-11T17:54:33.807Z,63.72
2022-10-11T17:57:35.524Z,63.69
2022-10-11T18:00:39.025Z,63.93
2022-10-11T18:03:41.565Z,63.62
2022-10-11T18:06:45.108Z,63.85
2022-10-11T18:09:46.706Z,62.97
2022-10-11T18:12:52.233Z,63.54
2022-10-11T18:15:54.033Z,63.62
2022-10-11T18:18:57.383Z,63.42
2022-10-11T18:22:01.998Z,63.53
2022-10-11T18:25:06.890Z,64.02
2022-10-11T18:28:08.448Z,63.72
2022-10-11T18:31:14.136Z,63.41
2022-10-11T18:34:16.266Z,63.61
2022-10-11T18:37:17.848Z,63.93
2022-10-11T18:40:19.411Z,64.38
2022-10-11T18:43:21.039Z,63.89
2022-10-11T18:46:23.845Z,63.91
2022-10-11T18:49:25.651Z,64.07
2022-10-11T18:52:27.229Z,64.54
2022-10-11T18:55:28.857Z,64.85
2022-10-11T18:58:31.797Z,65.34
2022-10-11T19:01:40.072Z,64.65
2022-10-11T19:04:41.954Z,64.68
2022-10-11T19:07:43.605Z,64.53
2022-10-11T19:10:45.497Z,64.23
2022-10-11T19:13:47.092Z,64.79
2022-10-11T19:16:51.414Z,65.08
2022-10-11T19:19:53.097Z,65.08
2022-10-11T19:22:54.704Z,65.10
2022-10-11T19:25:59.309Z,65.45
2022-10-11T19:29:06.571Z,65.21
2022-10-11T19:32:08.253Z,64.76
2022-10-11T19:35:10.091Z,65.31
2022-10-11T19:38:11.770Z,65.02
2022-10-11T19:41:15.684Z,65.72
2022-10-11T19:44:17.432Z,65.68
2022-10-11T19:47:19.035Z,65.36
2022-10-11T19:50:20.653Z,65.78
2022-10-11T19:53:22.417Z,65.84
2022-10-11T19:56:24.505Z,65.91
2022-10-11T19:59:28.046Z,66.03
2022-10-11T20:02:29.858Z,65.24
2022-10-11T20:05:37.335Z,65.37
2022-10-11T20:08:39.452Z,64.04
2022-10-11T20:11:41.003Z,64.17
2022-10-11T20:14:42.837Z,63.84
2022-10-11T20:17:50.325Z,63.19
2022-10-11T20:20:56.841Z,63.02
2022-10-11T20:24:01.425Z,62.44
2022-10-11T20:27:06.885Z,62.28
2022-10-11T20:30:09.536Z,61.57
2022-10-11T20:33:11.154Z,61.79
2022-10-11T20:36:23.866Z,61.76
2022-10-11T20:39:25.465Z,62.17
2022-10-11T20:42:29.755Z,62.33
2022-10-11T20:45:31.437Z,62.73
2022-10-11T20:48:33.937Z,62.62
2022-10-11T20:51:38.316Z,62.39
2022-10-11T20:54:41.491Z,62.55
2022-10-11T20:57:42.908Z,62.41
2022-10-11T21:00:44.414Z,61.54
2022-10-11T21:03:46.189Z,61.53
2022-10-11T21:06:48.598Z,61.73
2022-10-11T21:09:49.999Z,61.84
2022-10-11T21:12:51.377Z,61.25
2022-10-11T21:15:53.229Z,61.37
2022-10-11T21:18:57.597Z,61.65
2022-10-11T21:21:59.058Z,61.64
2022-10-11T21:25:00.550Z,61.68
2022-10-11T21:28:03.040Z,61.35
2022-10-11T21:31:12.579Z,61.26
2022-10-11T21:34:14.136Z,61.14
2022-10-11T21:37:15.575Z,60.69
2022-10-11T21:40:17.357Z,60.65
2022-10-11T21:43:18.786Z,60.54
2022-10-11T21:46:41.712Z,60.68
2022-10-11T21:49:47.503Z,60.57
2022-10-11T21:52:49.095Z,62.00
2022-10-11T21:55:57.370Z,60.33
2022-10-11T21:58:58.802Z,60.39
2022-10-11T22:02:02.011Z,61.33
2022-10-11T22:05:03.807Z,60.12
2022-10-11T22:08:05.259Z,60.07
2022-10-11T22:11:07.824Z,61.31
2022-10-11T22:14:09.327Z,60.14
2022-10-11T22:17:10.760Z,60.60
2022-10-11T22:20:12.193Z,60.30
2022-10-11T22:23:13.770Z,61.93
2022-10-11T22:26:18.310Z,60.43
2022-10-11T22:29:19.723Z,60.80
2022-10-11T22:32:21.164Z,60.44
2022-10-11T22:35:22.989Z,60.27
2022-10-11T22:38:25.299Z,59.78
2022-10-11T22:41:26.664Z,60.93
2022-10-11T22:44:28.239Z,60.41
2022-10-11T22:47:29.636Z,60.39
2022-10-11T22:50:31.049Z,60.17
2022-10-11T22:53:32.641Z,60.54
2022-10-11T22:56:34.097Z,60.69
2022-10-11T22:59:35.711Z,60.99
2022-10-11T23:02:37.108Z,60.86
2022-10-11T23:05:38.571Z,60.65
2022-10-11T23:08:40.197Z,61.33
2022-10-11T23:11:42.696Z,61.43
2022-10-11T23:14:44.327Z,61.10
2022-10-11T23:17:46.130Z,60.55
2022-10-11T23:20:47.605Z,60.90
2022-10-11T23:23:52.294Z,62.88
2022-10-11T23:26:53.683Z,62.44
2022-10-11T23:29:55.119Z,61.02
2022-10-11T23:32:56.765Z,62.22
2022-10-11T23:35:58.257Z,63.13
2022-10-11T23:38:59.763Z,61.20
2022-10-11T23:42:01.196Z,62.26
2022-10-11T23:45:02.811Z,62.67
2022-10-11T23:48:04.544Z,62.75
2022-10-11T23:51:06.495Z,60.93
2022-10-11T23:54:08.127Z,62.02
2022-10-11T23:57:09.639Z,61.11
